CBEGREATER CUMBERLAND RGNL
METARs for airports near CBE, sorted by distance:
N 0 nm 775' KCBE 142305Z 24009KT 10SM CLR 34/13 A3002
N 30 nm 1161' KHMZ 142315Z 27007KT 10SM CLR 32/11 A2999
E 38 nm 564' KMRB 142253Z 28008KT 10SM SCT110 35/13 A2993
SE 40 nm 726' KOKV 142315Z 15006KT 10SM OVC090 32/17 A2996
N 42 nm 2284' KJST 142254Z 27005KT 10SM CLR 29/14 A3006
NE 45 nm 1503' KAOO 142253Z 28005KT 10SM OVC100 31/14 A3001
NW 46 nm 1264' KVVS 142315Z 22008KT 10SM CLR 32/15 A3001
SE 48 nm 703' KFRR 142315Z 18005KT SCT100 32/18 A2996
E 48 nm 703' KHGR 142253Z 16005KT 10SM CLR 35/18 A2995
NW 49 nm 1198' KLBE 142247Z 22010G16KT 10SM CLR 34/15 A2999
W 53 nm 1243' KMGW 142253Z VRB04KT 10SM CLR 33/15 A3002
S 58 nm 902' KLUA 142315Z 00000KT 10SM 34/17 A2998
N 62 nm 1419' KIDI 142315Z 31005KT 10SM CLR 31/17 A3003
SE 64 nm 389' KJYO 142315Z 21009KT 10SM CLR 35/21 A2996
E 65 nm 308' KFDK 142247Z 18005KT 10SM CLR 36/17 A2994
SW 67 nm 1987' KEKN 142251Z 27007KT 10SM CLR 31/17 A3009
NW 69 nm 1251' KAGC 142253Z 22010KT 10SM CLR 33/13 A2998
W 70 nm 1223' KCKB 142253Z 28005KT 10SM CLR 33/18 A3002
SE 72 nm 312' KIAD 142252Z 20008KT 10SM FEW090 FEW250 34/18 A2994
S 75 nm 1165' KVBW 142315Z 29006KT 10SM SCT095 33/16 A3000
NW 77 nm 1183' KAFJ 142256Z 22009G15KT 10SM CLR 32/14 A3002
SE 77 nm 315' KCJR 142315Z 17003KT 10SM CLR 34/18 A2996
E 78 nm 538' KGAI 142256Z 20006KT 10SM CLR A2997
SE 78 nm 336' KHWY 142315Z 16004KT 10SM CLR 33/18 A2996
SE 79 nm 192' KHEF 142256Z 17007KT 10SM CLR 33/22 A2995
E 81 nm 789' KDMW 142305Z 21003KT 10SM CLR 36/17 A2997
S 81 nm 1201' KSHD 142315Z 25007KT 10SM CLR 34/16 A3003
NE 82 nm 818' KRVL 142315Z 00000KT 10SM CLR 30/20 A2995
NE 85 nm 1231' KUNV 142253Z 30005KT 10SM BKN070 31/16 A2999
NW 85 nm 1202' KPIT 142251Z 25007KT 10SM FEW060 SCT120 SCT250 33/16 A2998
N 87 nm 1516' KFIG 142254Z 31004KT 10SM FEW120 30/17 A3001
NW 88 nm 1248' KBTP 142256Z 25003KT 10SM CLR 29/19 A3000
SE 88 nm 464' KOMH 142315Z 00000KT 10SM CLR 32/21 A2998
E 89 nm 494' KTHV 142253Z VRB04KT 10SM CLR 33/21 A2995
S 89 nm 640' KCHO 142253Z 16003KT 10SM SCT100 BKN110 34/18 A2997
SE 91 nm 73' KDAA 142255Z 15005KT 10SM CLR 35/19 A2992
S 91 nm 454' KGVE 142315Z 20003KT 10SM SCT095 32/23 A2997
SE 92 nm 14' KDCA 142252Z 21009KT 10SM FEW080 FEW250 36/16 A2993
W 93 nm 1194' KHLG 142253Z 23012G20KT 10SM CLR 33/15 A2999
SE 93 nm 48' KCGS 142305Z 15007KT 10SM CLR 33/22 A2995
N 94 nm 1816' KDUJ 142253Z 27003KT 10SM BKN100 27/17 A3002
SE 95 nm 219' KRMN 142315Z 20005KT 10SM CLR 34/17 A2994
NE 95 nm 346' KCXY 142256Z 12011KT 10SM SCT095 33/21 A2994
SE 95 nm 10' KNYG 142256Z 5SM CLR 34/21 A2995
NW 95 nm 897' KPJC 142315Z 00000KT 10SM CLR 28/20 A2997
E 98 nm 150' KFME 142309Z 14004KT 10SM CLR 30/22 A2998
E 98 nm 310' KMDT 142256Z 14009KT 10SM SCT095 32/22 A2993
TAFs for airports near CBE, sorted by distance:
E 38 nm 564' KMRB KMRB 141727Z 1418/1518 25006KT P6SM FEW250
  FM142300 21005KT P6SM FEW250
  FM150300 17004KT P6SM FEW250
  FM151000 23005KT P6SM FEW200
  FM151400 28004KT P6SM FEW200
N 42 nm 2284' KJST KJST 142127Z 1421/1518 26009G18KT P6SM SCT060
  FM150100 27005KT P6SM VCSH SCT040 BKN100
  FM150700 23006KT P6SM OVC100
NE 45 nm 1503' KAOO TAF
  AMD KAOO 142127Z 1421/1518 26005KT P6SM SCT080
  FM150400 00000KT P6SM BKN090
  FM151400 25008KT P6SM SCT050 BKN250
NW 49 nm 1198' KLBE KLBE 142047Z 1421/1518 24013KT P6SM SCT050
  FM150300 20003KT P6SM BKN200
  FM151600 23013G22KT P6SM BKN050
W 53 nm 1243' KMGW KMGW 141736Z 1418/1518 24006KT P6SM SCT060
  FM150300 20003KT P6SM BKN100
  FM151600 22009G18KT P6SM SCT100
SW 67 nm 1987' KEKN TAF
  AMD KEKN 141918Z 1419/1518 26008G14KT P6SM SCT070
  FM150100 00000KT P6SM SKC
  FM150900 00000KT 3SM BR SCT002
  FM151200 23003KT P6SM SCT120
NW 69 nm 1251' KAGC KAGC 142047Z 1421/1518 25010KT P6SM SCT050
  FM150300 21004KT P6SM BKN150
  FM151600 22011G20KT P6SM VCSH BKN050
W 70 nm 1223' KCKB TAF KCKB 141720Z 1418/1518 26008KT P6SM FEW040
  FM150100 22002KT P6SM VCTS FEW060CB
  FM150900 20006KT P6SM SKC
  FM151600 24008G14KT P6SM FEW120
SE 72 nm 312' KIAD KIAD 142102Z 1421/1524 23009KT P6SM FEW250
  FM142300 21005KT P6SM FEW250
  FM150300 18004KT P6SM FEW250
  FM151600 26005KT P6SM FEW250
NE 85 nm 1231' KUNV KUNV 142127Z 1421/1518 28006KT P6SM SCT080
  FM150300 00000KT P6SM BKN090
  FM151400 25008KT P6SM SCT050 BKN250
NW 85 nm 1202' KPIT KPIT 142046Z 1421/1524 25008KT P6SM SCT050 BKN120
  FM150300 23004KT P6SM BKN150
  FM151600 24010G21KT P6SM VCSH BKN050
S 89 nm 640' KCHO TAF
  AMD KCHO 142008Z 1420/1518 16008G16KT P6SM FEW250
  FM150000 00000KT P6SM FEW250
  FM150500 18005KT P6SM FEW250
  FM151600 26003KT P6SM FEW200
SE 91 nm 73' KDAA TAF KDAA 121200Z 1212/1318 VRB05KT 9999 VCSH SCT030 BKN060 OVC100 QNH2996INS
  BECMG 1212/1213 03006KT 9000 -SHRA FEW015 BKN030 OVC070 QNH3000INS
  BECMG 1213/1214 04007KT 8000 -SHRA VCTS SCT015CB OVC030 QNH3011INS
  TEMPO 1214/1301 VRB12G20KT 4800 TSRA BR SCT008 OVC015CB
  BECMG 1302/1303 VRB06KT 9000 -RA OVC010 QNH3010INS
  BECMG 1306/1307 VRB05KT 4800 -RA BR OVC008 QNH3011INS
  BECMG 1312/1313 16007KT 8000 -SHRA VCTS SCT009 BKN015CB OVC030 QNH3012INS TX27/1220Z TN24/1310Z
SE 92 nm 14' KDCA KDCA 142102Z 1421/1524 21008G16KT P6SM VCTS SCT060CB SCT250
  FM142200 08008G16KT P6SM FEW200
  FM150500 17005KT P6SM FEW200
  FM151600 26005KT P6SM FEW200
W 93 nm 1194' KHLG KHLG 141736Z 1418/1518 25010KT P6SM SCT050
  FM150300 21004KT P6SM BKN150
  FM151600 24011G20KT P6SM VCSH BKN050
N 94 nm 1816' KDUJ TAF
  AMD KDUJ 142047Z 1421/1518 26010KT P6SM SCT050
  FM150300 23004KT P6SM BKN150
  FM151000 20003KT P6SM BKN025
  FM151300 24007KT P6SM BKN045
  FM151600 24010G18KT P6SM VCSH BKN100
SE 95 nm 10' KNYG TAF KNYG 1321/1421 VRB06KT 9999 SKC QNH3005INS
  FM140600 VRB06KT 9999 SCT200 QNH2995INS LAST NO
  AMDS AFT 1321 NEXT 1509 AUTOMATED SENSOR METWATCH 1321 TIL 1511 T32/1321Z T22/1411Z
E 98 nm 310' KMDT KMDT 142127Z 1421/1518 27005KT P6SM SCT040
  FM150000 15003KT 6SM BR SCT120
  FM150800 VRB03KT 4SM BR BKN250
  FM151300 28007KT P6SM SCT250

Shortcut to this page: http://wxbay.com.

Data may contain errors.